Terminal Aerodrome Forecast
Issued by NWS

Home | Current Version | Previous Version | Text Only | Print | Product List | Glossary On
Versions: 1 2 3 4 5 6 7 8 9 10 11 12 13 14 15 16 17 18 19
000
FTUS43 KFGF 301134
TAFBJI
TAF
KBJI 301134Z 3012/3112 33008KT P6SM VCSH OVC008
     FM301500 30010KT P6SM VCSH OVC010
     FM301900 29012KT P6SM OVC015
     FM302100 30012KT P6SM OVC025
     FM302200 30012KT P6SM OVC035
     FM310300 28007KT P6SM SCT100=

USA.gov is the U.S. government's official web portal to all federal, state and local government web resources and services.